sensor_id;sensor_type;location;lat;lon;timestamp;P1;durP1;ratioP1;P2;durP2;ratioP2
1140;SDS011;559;48.628;8.924;2022-08-18T00:01:41;148.33;;;138.13;;
1140;SDS011;559;48.628;8.924;2022-08-18T00:04:10;150.60;;;140.40;;
1140;SDS011;559;48.628;8.924;2022-08-18T00:06:36;147.40;;;137.20;;
1140;SDS011;559;48.628;8.924;2022-08-18T00:09:04;145.30;;;135.17;;
1140;SDS011;559;48.628;8.924;2022-08-18T00:11:33;145.57;;;135.53;;
1140;SDS011;559;48.628;8.924;2022-08-18T00:14:02;146.83;;;136.63;;
1140;SDS011;559;48.628;8.924;2022-08-18T00:16:29;146.90;;;136.97;;
1140;SDS011;559;48.628;8.924;2022-08-18T00:18:55;141.70;;;131.70;;
1140;SDS011;559;48.628;8.924;2022-08-18T00:21:23;148.50;;;138.50;;
1140;SDS011;559;48.628;8.924;2022-08-18T00:23:50;148.40;;;138.30;;
1140;SDS011;559;48.628;8.924;2022-08-18T00:26:16;146.00;;;135.90;;
1140;SDS011;559;48.628;8.924;2022-08-18T00:28:43;147.07;;;137.03;;
1140;SDS011;559;48.628;8.924;2022-08-18T00:31:09;150.23;;;140.10;;
1140;SDS011;559;48.628;8.924;2022-08-18T00:33:36;150.10;;;140.00;;
1140;SDS011;559;48.628;8.924;2022-08-18T00:36:03;148.10;;;137.90;;
1140;SDS011;559;48.628;8.924;2022-08-18T00:38:31;146.03;;;135.90;;
1140;SDS011;559;48.628;8.924;2022-08-18T00:40:57;145.83;;;135.83;;
1140;SDS011;559;48.628;8.924;2022-08-18T00:43:25;149.63;;;139.30;;
1140;SDS011;559;48.628;8.924;2022-08-18T00:45:56;150.60;;;139.90;;
1140;SDS011;559;48.628;8.924;2022-08-18T00:48:23;154.53;;;143.90;;
1140;SDS011;559;48.628;8.924;2022-08-18T00:50:50;156.37;;;145.73;;
1140;SDS011;559;48.628;8.924;2022-08-18T00:53:19;148.47;;;138.17;;
1140;SDS011;559;48.628;8.924;2022-08-18T00:55:48;147.47;;;137.07;;
1140;SDS011;559;48.628;8.924;2022-08-18T00:58:17;148.27;;;138.07;;
1140;SDS011;559;48.628;8.924;2022-08-18T01:00:48;155.90;;;145.30;;
1140;SDS011;559;48.628;8.924;2022-08-18T01:03:16;153.37;;;142.87;;
1140;SDS011;559;48.628;8.924;2022-08-18T01:05:44;150.73;;;140.17;;
1140;SDS011;559;48.628;8.924;2022-08-18T01:08:14;153.30;;;142.90;;
1140;SDS011;559;48.628;8.924;2022-08-18T01:10:42;154.13;;;143.67;;
1140;SDS011;559;48.628;8.924;2022-08-18T01:13:10;156.10;;;145.60;;
1140;SDS011;559;48.628;8.924;2022-08-18T01:15:37;159.47;;;148.53;;
1140;SDS011;559;48.628;8.924;2022-08-18T01:18:04;157.70;;;147.03;;
1140;SDS011;559;48.628;8.924;2022-08-18T01:20:51;157.90;;;147.20;;
1140;SDS011;559;48.628;8.924;2022-08-18T01:23:41;161.13;;;150.43;;
1140;SDS011;559;48.628;8.924;2022-08-18T01:26:08;155.37;;;144.77;;
1140;SDS011;559;48.628;8.924;2022-08-18T01:28:35;155.83;;;145.40;;
1140;SDS011;559;48.628;8.924;2022-08-18T01:31:03;156.43;;;145.43;;
1140;SDS011;559;48.628;8.924;2022-08-18T01:33:31;149.90;;;139.50;;
1140;SDS011;559;48.628;8.924;2022-08-18T01:36:04;154.03;;;143.63;;
1140;SDS011;559;48.628;8.924;2022-08-18T01:38:32;158.40;;;147.50;;
1140;SDS011;559;48.628;8.924;2022-08-18T01:41:00;159.30;;;148.50;;
1140;SDS011;559;48.628;8.924;2022-08-18T01:43:27;155.47;;;144.67;;
1140;SDS011;559;48.628;8.924;2022-08-18T01:45:53;158.60;;;147.87;;
1140;SDS011;559;48.628;8.924;2022-08-18T01:48:21;157.30;;;146.70;;
1140;SDS011;559;48.628;8.924;2022-08-18T01:50:48;153.50;;;142.90;;
1140;SDS011;559;48.628;8.924;2022-08-18T01:53:14;155.40;;;144.80;;
1140;SDS011;559;48.628;8.924;2022-08-18T01:55:41;160.27;;;149.67;;
1140;SDS011;559;48.628;8.924;2022-08-18T01:58:10;159.20;;;148.50;;
1140;SDS011;559;48.628;8.924;2022-08-18T02:00:37;151.70;;;140.90;;
1140;SDS011;559;48.628;8.924;2022-08-18T02:03:05;153.33;;;142.60;;
1140;SDS011;559;48.628;8.924;2022-08-18T02:05:34;152.40;;;141.90;;
1140;SDS011;559;48.628;8.924;2022-08-18T02:08:02;154.60;;;143.60;;
1140;SDS011;559;48.628;8.924;2022-08-18T02:10:29;152.73;;;142.33;;
1140;SDS011;559;48.628;8.924;2022-08-18T02:12:56;151.93;;;141.47;;
1140;SDS011;559;48.628;8.924;2022-08-18T02:15:24;154.00;;;143.40;;
1140;SDS011;559;48.628;8.924;2022-08-18T02:17:52;146.33;;;136.13;;
1140;SDS011;559;48.628;8.924;2022-08-18T02:20:18;152.53;;;142.23;;
1140;SDS011;559;48.628;8.924;2022-08-18T02:22:45;153.17;;;142.87;;
1140;SDS011;559;48.628;8.924;2022-08-18T02:25:13;149.80;;;139.60;;
1140;SDS011;559;48.628;8.924;2022-08-18T02:27:41;147.20;;;137.03;;
1140;SDS011;559;48.628;8.924;2022-08-18T02:30:08;148.07;;;137.97;;
1140;SDS011;559;48.628;8.924;2022-08-18T02:32:38;149.97;;;139.83;;
1140;SDS011;559;48.628;8.924;2022-08-18T02:35:05;155.40;;;144.90;;
1140;SDS011;559;48.628;8.924;2022-08-18T02:37:32;150.97;;;140.57;;
1140;SDS011;559;48.628;8.924;2022-08-18T02:39:59;157.67;;;147.17;;
1140;SDS011;559;48.628;8.924;2022-08-18T02:42:26;147.20;;;136.90;;
1140;SDS011;559;48.628;8.924;2022-08-18T02:44:53;153.70;;;143.30;;
1140;SDS011;559;48.628;8.924;2022-08-18T02:47:20;153.13;;;142.83;;
1140;SDS011;559;48.628;8.924;2022-08-18T02:49:48;154.77;;;144.07;;
1140;SDS011;559;48.628;8.924;2022-08-18T02:52:15;174.13;;;162.53;;
1140;SDS011;559;48.628;8.924;2022-08-18T02:54:41;159.40;;;148.80;;
1140;SDS011;559;48.628;8.924;2022-08-18T02:57:09;153.17;;;142.83;;
1140;SDS011;559;48.628;8.924;2022-08-18T02:59:36;164.30;;;153.70;;
1140;SDS011;559;48.628;8.924;2022-08-18T03:02:04;152.37;;;141.80;;
1140;SDS011;559;48.628;8.924;2022-08-18T03:04:33;154.47;;;144.10;;
1140;SDS011;559;48.628;8.924;2022-08-18T03:07:02;144.80;;;134.60;;
1140;SDS011;559;48.628;8.924;2022-08-18T03:09:30;148.53;;;138.33;;
1140;SDS011;559;48.628;8.924;2022-08-18T03:11:57;151.43;;;141.17;;
1140;SDS011;559;48.628;8.924;2022-08-18T03:14:24;154.90;;;144.60;;
1140;SDS011;559;48.628;8.924;2022-08-18T03:16:50;153.00;;;142.50;;
1140;SDS011;559;48.628;8.924;2022-08-18T03:19:17;155.10;;;144.60;;
1140;SDS011;559;48.628;8.924;2022-08-18T03:21:44;156.63;;;146.13;;
1140;SDS011;559;48.628;8.924;2022-08-18T03:24:13;155.23;;;144.73;;
1140;SDS011;559;48.628;8.924;2022-08-18T03:26:42;149.83;;;139.23;;
1140;SDS011;559;48.628;8.924;2022-08-18T03:29:09;149.87;;;139.33;;
1140;SDS011;559;48.628;8.924;2022-08-18T03:31:36;160.93;;;150.37;;
1140;SDS011;559;48.628;8.924;2022-08-18T03:34:05;150.40;;;140.10;;
1140;SDS011;559;48.628;8.924;2022-08-18T03:36:32;153.90;;;143.50;;
1140;SDS011;559;48.628;8.924;2022-08-18T03:39:00;156.47;;;146.07;;
1140;SDS011;559;48.628;8.924;2022-08-18T03:41:29;150.80;;;140.60;;
1140;SDS011;559;48.628;8.924;2022-08-18T03:43:56;153.60;;;143.30;;
1140;SDS011;559;48.628;8.924;2022-08-18T03:46:23;146.63;;;136.43;;
1140;SDS011;559;48.628;8.924;2022-08-18T03:48:50;150.97;;;140.57;;
1140;SDS011;559;48.628;8.924;2022-08-18T03:51:19;158.47;;;147.97;;
1140;SDS011;559;48.628;8.924;2022-08-18T03:53:49;165.17;;;154.40;;
1140;SDS011;559;48.628;8.924;2022-08-18T03:56:18;165.83;;;154.93;;
1140;SDS011;559;48.628;8.924;2022-08-18T03:58:50;159.30;;;148.70;;
1140;SDS011;559;48.628;8.924;2022-08-18T04:01:19;160.93;;;150.07;;
1140;SDS011;559;48.628;8.924;2022-08-18T04:03:50;155.97;;;145.47;;
1140;SDS011;559;48.628;8.924;2022-08-18T04:06:18;158.80;;;148.03;;
1140;SDS011;559;48.628;8.924;2022-08-18T04:08:49;157.33;;;146.67;;
1140;SDS011;559;48.628;8.924;2022-08-18T04:11:16;161.57;;;150.87;;
1140;SDS011;559;48.628;8.924;2022-08-18T04:13:43;159.73;;;149.23;;
1140;SDS011;559;48.628;8.924;2022-08-18T04:16:11;157.30;;;146.83;;
1140;SDS011;559;48.628;8.924;2022-08-18T04:18:37;167.37;;;156.37;;
1140;SDS011;559;48.628;8.924;2022-08-18T04:21:05;174.23;;;163.17;;
1140;SDS011;559;48.628;8.924;2022-08-18T04:23:33;168.60;;;157.40;;
1140;SDS011;559;48.628;8.924;2022-08-18T04:25:59;167.03;;;155.93;;
1140;SDS011;559;48.628;8.924;2022-08-18T04:28:26;173.93;;;162.63;;
1140;SDS011;559;48.628;8.924;2022-08-18T04:30:54;172.97;;;161.83;;
1140;SDS011;559;48.628;8.924;2022-08-18T04:33:25;178.03;;;166.70;;
1140;SDS011;559;48.628;8.924;2022-08-18T04:35:52;179.10;;;167.80;;
1140;SDS011;559;48.628;8.924;2022-08-18T04:38:19;171.97;;;160.97;;
1140;SDS011;559;48.628;8.924;2022-08-18T04:40:45;173.67;;;162.53;;
1140;SDS011;559;48.628;8.924;2022-08-18T04:43:12;168.00;;;156.90;;
1140;SDS011;559;48.628;8.924;2022-08-18T04:45:40;171.27;;;160.17;;
1140;SDS011;559;48.628;8.924;2022-08-18T04:48:09;160.93;;;150.03;;
1140;SDS011;559;48.628;8.924;2022-08-18T04:50:37;157.60;;;147.10;;
1140;SDS011;559;48.628;8.924;2022-08-18T04:53:04;167.80;;;156.90;;
1140;SDS011;559;48.628;8.924;2022-08-18T04:55:49;161.03;;;150.23;;
1140;SDS011;559;48.628;8.924;2022-08-18T04:58:18;162.43;;;151.60;;
1140;SDS011;559;48.628;8.924;2022-08-18T05:00:45;154.43;;;144.00;;
1140;SDS011;559;48.628;8.924;2022-08-18T05:03:12;162.10;;;151.20;;
1140;SDS011;559;48.628;8.924;2022-08-18T05:05:40;163.37;;;152.47;;
1140;SDS011;559;48.628;8.924;2022-08-18T05:08:06;158.27;;;147.70;;
1140;SDS011;559;48.628;8.924;2022-08-18T05:10:34;161.80;;;151.00;;
1140;SDS011;559;48.628;8.924;2022-08-18T05:13:00;160.03;;;149.50;;
1140;SDS011;559;48.628;8.924;2022-08-18T05:15:27;158.93;;;148.03;;
1140;SDS011;559;48.628;8.924;2022-08-18T05:17:53;168.13;;;157.30;;
1140;SDS011;559;48.628;8.924;2022-08-18T05:20:20;166.33;;;155.53;;
1140;SDS011;559;48.628;8.924;2022-08-18T05:22:48;162.30;;;151.50;;
1140;SDS011;559;48.628;8.924;2022-08-18T05:25:15;163.33;;;152.83;;
1140;SDS011;559;48.628;8.924;2022-08-18T05:27:41;150.60;;;140.60;;
1140;SDS011;559;48.628;8.924;2022-08-18T05:30:09;150.40;;;140.30;;
1140;SDS011;559;48.628;8.924;2022-08-18T05:32:38;146.70;;;136.40;;
1140;SDS011;559;48.628;8.924;2022-08-18T05:35:06;151.30;;;141.10;;
1140;SDS011;559;48.628;8.924;2022-08-18T05:37:38;145.70;;;135.60;;
1140;SDS011;559;48.628;8.924;2022-08-18T05:40:12;143.20;;;133.23;;
1140;SDS011;559;48.628;8.924;2022-08-18T05:42:39;141.37;;;131.37;;
1140;SDS011;559;48.628;8.924;2022-08-18T05:45:07;148.33;;;138.03;;
1140;SDS011;559;48.628;8.924;2022-08-18T05:47:35;142.70;;;132.73;;
1140;SDS011;559;48.628;8.924;2022-08-18T05:50:02;139.93;;;130.13;;
1140;SDS011;559;48.628;8.924;2022-08-18T05:52:32;141.47;;;131.57;;
1140;SDS011;559;48.628;8.924;2022-08-18T05:55:03;145.00;;;134.70;;
1140;SDS011;559;48.628;8.924;2022-08-18T05:57:51;152.03;;;141.83;;
1140;SDS011;559;48.628;8.924;2022-08-18T06:00:24;156.20;;;145.63;;
1140;SDS011;559;48.628;8.924;2022-08-18T06:02:54;140.83;;;130.80;;
1140;SDS011;559;48.628;8.924;2022-08-18T06:05:24;138.67;;;128.80;;
1140;SDS011;559;48.628;8.924;2022-08-18T06:07:54;141.93;;;131.63;;
1140;SDS011;559;48.628;8.924;2022-08-18T06:10:22;141.80;;;131.60;;
1140;SDS011;559;48.628;8.924;2022-08-18T06:12:52;141.23;;;131.00;;
1140;SDS011;559;48.628;8.924;2022-08-18T06:15:22;140.83;;;130.63;;
1140;SDS011;559;48.628;8.924;2022-08-18T06:17:54;137.80;;;127.73;;
1140;SDS011;559;48.628;8.924;2022-08-18T06:20:58;144.20;;;133.70;;
1140;SDS011;559;48.628;8.924;2022-08-18T06:23:33;138.93;;;128.93;;
1140;SDS011;559;48.628;8.924;2022-08-18T06:26:06;140.93;;;130.73;;
1140;SDS011;559;48.628;8.924;2022-08-18T06:28:41;138.47;;;128.47;;
1140;SDS011;559;48.628;8.924;2022-08-18T06:31:17;139.77;;;129.73;;
1140;SDS011;559;48.628;8.924;2022-08-18T06:33:48;143.93;;;134.03;;
1140;SDS011;559;48.628;8.924;2022-08-18T06:36:24;149.10;;;138.93;;
1140;SDS011;559;48.628;8.924;2022-08-18T06:39:00;144.60;;;134.47;;
1140;SDS011;559;48.628;8.924;2022-08-18T06:41:32;147.33;;;137.30;;
1140;SDS011;559;48.628;8.924;2022-08-18T06:44:04;150.67;;;140.47;;
1140;SDS011;559;48.628;8.924;2022-08-18T06:46:36;140.17;;;129.97;;
1140;SDS011;559;48.628;8.924;2022-08-18T06:49:07;140.47;;;130.53;;
1140;SDS011;559;48.628;8.924;2022-08-18T06:51:35;137.23;;;127.53;;
1140;SDS011;559;48.628;8.924;2022-08-18T06:54:03;134.30;;;124.40;;
1140;SDS011;559;48.628;8.924;2022-08-18T06:56:46;138.50;;;128.57;;
1140;SDS011;559;48.628;8.924;2022-08-18T06:59:20;139.47;;;129.43;;
1140;SDS011;559;48.628;8.924;2022-08-18T07:01:53;139.80;;;130.10;;
1140;SDS011;559;48.628;8.924;2022-08-18T07:04:32;138.37;;;128.70;;
1140;SDS011;559;48.628;8.924;2022-08-18T07:07:15;134.77;;;125.27;;
1140;SDS011;559;48.628;8.924;2022-08-18T07:09:45;134.37;;;124.87;;
1140;SDS011;559;48.628;8.924;2022-08-18T07:12:17;140.07;;;130.63;;
1140;SDS011;559;48.628;8.924;2022-08-18T07:14:48;143.37;;;133.57;;
1140;SDS011;559;48.628;8.924;2022-08-18T07:17:21;148.80;;;138.83;;
1140;SDS011;559;48.628;8.924;2022-08-18T07:19:54;147.17;;;137.33;;
1140;SDS011;559;48.628;8.924;2022-08-18T07:22:22;140.43;;;130.80;;
1140;SDS011;559;48.628;8.924;2022-08-18T07:24:49;139.93;;;130.47;;
1140;SDS011;559;48.628;8.924;2022-08-18T07:27:19;142.77;;;133.10;;
1140;SDS011;559;48.628;8.924;2022-08-18T07:30:01;135.03;;;125.60;;
1140;SDS011;559;48.628;8.924;2022-08-18T07:32:31;136.37;;;126.97;;
1140;SDS011;559;48.628;8.924;2022-08-18T07:35:03;138.73;;;129.33;;
1140;SDS011;559;48.628;8.924;2022-08-18T07:37:34;137.97;;;128.47;;
1140;SDS011;559;48.628;8.924;2022-08-18T07:40:06;148.10;;;138.20;;
1140;SDS011;559;48.628;8.924;2022-08-18T07:42:42;141.30;;;131.70;;
1140;SDS011;559;48.628;8.924;2022-08-18T07:45:17;139.73;;;130.20;;
1140;SDS011;559;48.628;8.924;2022-08-18T07:47:54;144.27;;;134.63;;
1140;SDS011;559;48.628;8.924;2022-08-18T07:50:23;142.40;;;132.60;;
1140;SDS011;559;48.628;8.924;2022-08-18T07:52:57;144.13;;;134.10;;
1140;SDS011;559;48.628;8.924;2022-08-18T07:55:30;141.67;;;131.80;;
1140;SDS011;559;48.628;8.924;2022-08-18T07:58:01;142.13;;;131.73;;
1140;SDS011;559;48.628;8.924;2022-08-18T08:00:37;141.77;;;131.80;;
1140;SDS011;559;48.628;8.924;2022-08-18T08:03:09;148.47;;;138.50;;
1140;SDS011;559;48.628;8.924;2022-08-18T08:05:45;138.80;;;129.30;;
1140;SDS011;559;48.628;8.924;2022-08-18T08:08:24;143.00;;;133.10;;
1140;SDS011;559;48.628;8.924;2022-08-18T08:10:59;148.20;;;138.30;;
1140;SDS011;559;48.628;8.924;2022-08-18T08:13:34;139.07;;;129.50;;
1140;SDS011;559;48.628;8.924;2022-08-18T08:16:11;140.20;;;130.17;;
1140;SDS011;559;48.628;8.924;2022-08-18T08:18:44;134.13;;;124.53;;
1140;SDS011;559;48.628;8.924;2022-08-18T08:21:15;142.33;;;132.63;;
1140;SDS011;559;48.628;8.924;2022-08-18T08:23:44;137.23;;;127.63;;
1140;SDS011;559;48.628;8.924;2022-08-18T08:26:18;143.07;;;133.47;;
1140;SDS011;559;48.628;8.924;2022-08-18T08:28:52;134.87;;;125.57;;
1140;SDS011;559;48.628;8.924;2022-08-18T08:31:28;143.17;;;133.47;;
1140;SDS011;559;48.628;8.924;2022-08-18T08:34:01;137.97;;;128.47;;
1140;SDS011;559;48.628;8.924;2022-08-18T08:36:31;132.23;;;123.07;;
1140;SDS011;559;48.628;8.924;2022-08-18T08:39:00;138.60;;;129.23;;
1140;SDS011;559;48.628;8.924;2022-08-18T08:41:30;132.43;;;123.30;;
1140;SDS011;559;48.628;8.924;2022-08-18T08:44:01;138.35;;;128.57;;
1140;SDS011;559;48.628;8.924;2022-08-18T08:46:34;132.90;;;123.87;;
1140;SDS011;559;48.628;8.924;2022-08-18T08:49:10;136.27;;;127.07;;
1140;SDS011;559;48.628;8.924;2022-08-18T08:51:40;134.87;;;125.90;;
1140;SDS011;559;48.628;8.924;2022-08-18T08:54:12;132.70;;;123.60;;
1140;SDS011;559;48.628;8.924;2022-08-18T08:56:47;132.87;;;123.80;;
1140;SDS011;559;48.628;8.924;2022-08-18T08:59:16;130.77;;;121.50;;
1140;SDS011;559;48.628;8.924;2022-08-18T09:01:50;137.03;;;128.13;;
1140;SDS011;559;48.628;8.924;2022-08-18T09:04:26;134.00;;;124.90;;
1140;SDS011;559;48.628;8.924;2022-08-18T09:06:59;134.23;;;125.33;;
1140;SDS011;559;48.628;8.924;2022-08-18T09:09:39;127.07;;;118.30;;
1140;SDS011;559;48.628;8.924;2022-08-18T09:12:24;133.43;;;124.37;;
1140;SDS011;559;48.628;8.924;2022-08-18T09:15:09;125.27;;;116.50;;
1140;SDS011;559;48.628;8.924;2022-08-18T09:17:47;126.63;;;117.93;;
1140;SDS011;559;48.628;8.924;2022-08-18T09:20:39;131.43;;;122.87;;
1140;SDS011;559;48.628;8.924;2022-08-18T09:23:15;121.67;;;112.77;;
1140;SDS011;559;48.628;8.924;2022-08-18T09:25:44;130.73;;;121.97;;
1140;SDS011;559;48.628;8.924;2022-08-18T09:28:13;130.37;;;121.23;;
1140;SDS011;559;48.628;8.924;2022-08-18T09:30:43;128.33;;;120.10;;
1140;SDS011;559;48.628;8.924;2022-08-18T09:33:16;127.97;;;119.77;;
1140;SDS011;559;48.628;8.924;2022-08-18T09:35:50;120.23;;;112.10;;
1140;SDS011;559;48.628;8.924;2022-08-18T09:38:23;115.70;;;107.77;;
1140;SDS011;559;48.628;8.924;2022-08-18T09:41:12;117.80;;;110.10;;
1140;SDS011;559;48.628;8.924;2022-08-18T09:43:59;120.27;;;111.97;;
1140;SDS011;559;48.628;8.924;2022-08-18T09:46:49;125.33;;;117.00;;
1140;SDS011;559;48.628;8.924;2022-08-18T09:58:13;120.70;;;112.00;;
1140;SDS011;559;48.628;8.924;2022-08-18T10:00:41;118.67;;;110.47;;
1140;SDS011;559;48.628;8.924;2022-08-18T10:03:12;127.03;;;118.53;;
1140;SDS011;559;48.628;8.924;2022-08-18T10:05:58;121.23;;;113.10;;
1140;SDS011;559;48.628;8.924;2022-08-18T10:08:53;116.97;;;109.07;;
1140;SDS011;559;48.628;8.924;2022-08-18T10:11:29;117.20;;;109.40;;
1140;SDS011;559;48.628;8.924;2022-08-18T10:14:08;120.07;;;112.43;;
1140;SDS011;559;48.628;8.924;2022-08-18T10:16:52;113.37;;;105.97;;
1140;SDS011;559;48.628;8.924;2022-08-18T10:19:25;111.67;;;104.43;;
1140;SDS011;559;48.628;8.924;2022-08-18T10:22:06;110.30;;;103.10;;
1140;SDS011;559;48.628;8.924;2022-08-18T10:24:34;107.40;;;100.40;;
1140;SDS011;559;48.628;8.924;2022-08-18T10:27:04;107.70;;;100.73;;
1140;SDS011;559;48.628;8.924;2022-08-18T10:32:37;101.23;;;94.80;;
1140;SDS011;559;48.628;8.924;2022-08-18T10:38:19;109.70;;;103.10;;
1140;SDS011;559;48.628;8.924;2022-08-18T10:40:51;113.07;;;106.47;;
1140;SDS011;559;48.628;8.924;2022-08-18T10:43:21;104.60;;;98.13;;
1140;SDS011;559;48.628;8.924;2022-08-18T10:45:54;99.17;;;93.37;;
1140;SDS011;559;48.628;8.924;2022-08-18T10:48:23;105.37;;;98.70;;
1140;SDS011;559;48.628;8.924;2022-08-18T10:50:53;99.80;;;93.60;;
1140;SDS011;559;48.628;8.924;2022-08-18T10:53:25;100.40;;;94.10;;
1140;SDS011;559;48.628;8.924;2022-08-18T10:55:57;104.03;;;98.03;;
1140;SDS011;559;48.628;8.924;2022-08-18T10:58:31;108.00;;;101.70;;
1140;SDS011;559;48.628;8.924;2022-08-18T11:01:08;99.00;;;93.10;;
1140;SDS011;559;48.628;8.924;2022-08-18T11:03:47;103.57;;;97.07;;
1140;SDS011;559;48.628;8.924;2022-08-18T11:06:25;98.27;;;92.17;;
1140;SDS011;559;48.628;8.924;2022-08-18T11:08:56;100.73;;;94.53;;
1140;SDS011;559;48.628;8.924;2022-08-18T11:11:25;107.20;;;100.80;;
1140;SDS011;559;48.628;8.924;2022-08-18T11:13:57;104.57;;;98.07;;
1140;SDS011;559;48.628;8.924;2022-08-18T11:16:30;109.60;;;102.97;;
1140;SDS011;559;48.628;8.924;2022-08-18T11:19:05;113.60;;;106.40;;
1140;SDS011;559;48.628;8.924;2022-08-18T11:21:36;112.30;;;105.20;;
1140;SDS011;559;48.628;8.924;2022-08-18T11:24:10;114.87;;;107.57;;
1140;SDS011;559;48.628;8.924;2022-08-18T11:26:41;124.63;;;116.40;;
1140;SDS011;559;48.628;8.924;2022-08-18T11:29:19;117.07;;;109.47;;
1140;SDS011;559;48.628;8.924;2022-08-18T11:31:57;119.70;;;111.63;;
1140;SDS011;559;48.628;8.924;2022-08-18T11:34:30;118.67;;;111.10;;
1140;SDS011;559;48.628;8.924;2022-08-18T11:37:02;120.80;;;113.33;;
1140;SDS011;559;48.628;8.924;2022-08-18T11:39:32;120.77;;;112.93;;
1140;SDS011;559;48.628;8.924;2022-08-18T11:41:59;124.90;;;117.10;;
1140;SDS011;559;48.628;8.924;2022-08-18T11:44:28;120.90;;;113.10;;
1140;SDS011;559;48.628;8.924;2022-08-18T11:47:06;127.53;;;118.93;;
1140;SDS011;559;48.628;8.924;2022-08-18T11:49:34;126.07;;;118.17;;
1140;SDS011;559;48.628;8.924;2022-08-18T11:52:13;126.13;;;118.23;;
1140;SDS011;559;48.628;8.924;2022-08-18T11:54:46;124.80;;;116.70;;
1140;SDS011;559;48.628;8.924;2022-08-18T12:00:37;121.40;;;114.27;;
1140;SDS011;559;48.628;8.924;2022-08-18T12:03:22;113.90;;;106.70;;
1140;SDS011;559;48.628;8.924;2022-08-18T12:05:55;110.63;;;103.63;;
1140;SDS011;559;48.628;8.924;2022-08-18T12:08:25;109.87;;;103.40;;
1140;SDS011;559;48.628;8.924;2022-08-18T12:11:03;104.13;;;97.93;;
1140;SDS011;559;48.628;8.924;2022-08-18T12:13:31;107.00;;;100.70;;
1140;SDS011;559;48.628;8.924;2022-08-18T12:16:07;106.53;;;100.20;;
1140;SDS011;559;48.628;8.924;2022-08-18T12:18:39;102.43;;;96.13;;
1140;SDS011;559;48.628;8.924;2022-08-18T12:21:05;104.07;;;98.17;;
1140;SDS011;559;48.628;8.924;2022-08-18T12:23:34;102.60;;;95.97;;
1140;SDS011;559;48.628;8.924;2022-08-18T12:26:02;102.30;;;96.20;;
1140;SDS011;559;48.628;8.924;2022-08-18T12:28:29;99.93;;;94.50;;
1140;SDS011;559;48.628;8.924;2022-08-18T12:30:55;97.43;;;91.93;;
1140;SDS011;559;48.628;8.924;2022-08-18T12:33:22;92.00;;;87.60;;
1140;SDS011;559;48.628;8.924;2022-08-18T12:35:48;88.67;;;84.37;;
1140;SDS011;559;48.628;8.924;2022-08-18T12:38:15;89.13;;;84.77;;
1140;SDS011;559;48.628;8.924;2022-08-18T12:40:42;89.80;;;85.33;;
1140;SDS011;559;48.628;8.924;2022-08-18T12:43:11;92.20;;;87.90;;
1140;SDS011;559;48.628;8.924;2022-08-18T12:45:37;88.10;;;84.00;;
1140;SDS011;559;48.628;8.924;2022-08-18T12:48:04;95.47;;;90.50;;
1140;SDS011;559;48.628;8.924;2022-08-18T12:50:31;98.07;;;93.17;;
1140;SDS011;559;48.628;8.924;2022-08-18T12:52:58;86.83;;;82.93;;
1140;SDS011;559;48.628;8.924;2022-08-18T12:55:25;85.13;;;81.23;;
1140;SDS011;559;48.628;8.924;2022-08-18T12:57:52;86.73;;;82.80;;
1140;SDS011;559;48.628;8.924;2022-08-18T13:00:20;88.00;;;83.90;;
1140;SDS011;559;48.628;8.924;2022-08-18T13:02:46;79.40;;;76.00;;
1140;SDS011;559;48.628;8.924;2022-08-18T13:05:13;82.57;;;78.87;;
1140;SDS011;559;48.628;8.924;2022-08-18T13:07:39;75.03;;;71.73;;
1140;SDS011;559;48.628;8.924;2022-08-18T13:10:07;78.17;;;74.80;;
1140;SDS011;559;48.628;8.924;2022-08-18T13:12:34;77.40;;;73.90;;
1140;SDS011;559;48.628;8.924;2022-08-18T13:15:01;78.40;;;75.17;;
1140;SDS011;559;48.628;8.924;2022-08-18T13:17:31;75.10;;;71.90;;
1140;SDS011;559;48.628;8.924;2022-08-18T13:19:57;68.87;;;65.97;;
1140;SDS011;559;48.628;8.924;2022-08-18T13:22:24;51.50;;;49.30;;
1140;SDS011;559;48.628;8.924;2022-08-18T13:24:51;48.67;;;46.70;;
1140;SDS011;559;48.628;8.924;2022-08-18T13:27:17;56.67;;;54.57;;
1140;SDS011;559;48.628;8.924;2022-08-18T13:29:46;55.90;;;53.90;;
1140;SDS011;559;48.628;8.924;2022-08-18T13:32:13;44.80;;;42.03;;
1140;SDS011;559;48.628;8.924;2022-08-18T13:34:41;49.10;;;47.03;;
1140;SDS011;559;48.628;8.924;2022-08-18T13:37:07;45.70;;;44.00;;
1140;SDS011;559;48.628;8.924;2022-08-18T13:39:34;45.37;;;43.47;;
1140;SDS011;559;48.628;8.924;2022-08-18T13:42:01;52.27;;;50.13;;
1140;SDS011;559;48.628;8.924;2022-08-18T13:44:28;27.80;;;26.60;;
1140;SDS011;559;48.628;8.924;2022-08-18T13:46:56;33.57;;;32.10;;
1140;SDS011;559;48.628;8.924;2022-08-18T13:49:22;36.47;;;35.17;;
1140;SDS011;559;48.628;8.924;2022-08-18T13:51:51;32.27;;;30.40;;
1140;SDS011;559;48.628;8.924;2022-08-18T13:54:24;40.50;;;38.90;;
1140;SDS011;559;48.628;8.924;2022-08-18T13:56:52;31.17;;;29.37;;
1140;SDS011;559;48.628;8.924;2022-08-18T13:59:18;35.27;;;33.77;;
1140;SDS011;559;48.628;8.924;2022-08-18T14:01:46;33.20;;;31.80;;
1140;SDS011;559;48.628;8.924;2022-08-18T14:04:13;37.47;;;35.97;;
1140;SDS011;559;48.628;8.924;2022-08-18T14:06:40;30.57;;;29.17;;
1140;SDS011;559;48.628;8.924;2022-08-18T14:09:08;41.47;;;39.83;;
1140;SDS011;559;48.628;8.924;2022-08-18T14:11:35;35.30;;;33.70;;
1140;SDS011;559;48.628;8.924;2022-08-18T14:14:03;27.27;;;25.97;;
1140;SDS011;559;48.628;8.924;2022-08-18T14:16:30;31.07;;;29.53;;
1140;SDS011;559;48.628;8.924;2022-08-18T14:18:58;42.00;;;40.20;;
1140;SDS011;559;48.628;8.924;2022-08-18T14:21:43;36.73;;;35.33;;
1140;SDS011;559;48.628;8.924;2022-08-18T14:24:30;40.83;;;39.17;;
1140;SDS011;559;48.628;8.924;2022-08-18T14:27:15;49.90;;;47.97;;
1140;SDS011;559;48.628;8.924;2022-08-18T14:29:42;49.03;;;47.20;;
1140;SDS011;559;48.628;8.924;2022-08-18T14:32:12;52.67;;;50.60;;
1140;SDS011;559;48.628;8.924;2022-08-18T14:34:38;62.47;;;59.77;;
1140;SDS011;559;48.628;8.924;2022-08-18T14:37:06;61.17;;;59.07;;
1140;SDS011;559;48.628;8.924;2022-08-18T14:39:34;63.90;;;61.60;;
1140;SDS011;559;48.628;8.924;2022-08-18T14:42:02;68.77;;;66.40;;
1140;SDS011;559;48.628;8.924;2022-08-18T14:44:28;63.13;;;60.83;;
1140;SDS011;559;48.628;8.924;2022-08-18T14:46:55;65.50;;;63.20;;
1140;SDS011;559;48.628;8.924;2022-08-18T14:49:22;67.47;;;64.43;;
1140;SDS011;559;48.628;8.924;2022-08-18T14:51:48;66.47;;;64.27;;
1140;SDS011;559;48.628;8.924;2022-08-18T14:54:16;59.53;;;57.13;;
1140;SDS011;559;48.628;8.924;2022-08-18T14:56:44;62.63;;;60.33;;
1140;SDS011;559;48.628;8.924;2022-08-18T14:59:10;64.57;;;62.13;;
1140;SDS011;559;48.628;8.924;2022-08-18T15:01:37;68.13;;;65.33;;
1140;SDS011;559;48.628;8.924;2022-08-18T15:04:03;66.30;;;64.00;;
1140;SDS011;559;48.628;8.924;2022-08-18T15:06:30;72.83;;;70.13;;
1140;SDS011;559;48.628;8.924;2022-08-18T15:08:57;71.07;;;68.47;;
1140;SDS011;559;48.628;8.924;2022-08-18T15:11:24;74.80;;;72.07;;
1140;SDS011;559;48.628;8.924;2022-08-18T15:13:51;70.90;;;68.37;;
1140;SDS011;559;48.628;8.924;2022-08-18T15:16:18;63.60;;;61.33;;
1140;SDS011;559;48.628;8.924;2022-08-18T15:18:47;61.90;;;59.80;;